Howell, MI

7:06 PM EDT on September 25, 2017 (GMT -0400)
Livingston County

Weather History for KOZW - November, 2012

Change the Weather History Date:

Saturday, November 24, 2012

  Actual Average Record
Temperature  
Mean Temperature 30 °F -  
Max Temperature 32 °F 44 °F 60 °F (2001)
Min Temperature 29 °F 31 °F 10 °F (2013)
Degree Days  
Heating Degree Days 34    
Moisture  
Dew Point 17 °F    
Average Humidity 57    
Maximum Humidity 64    
Minimum Humidity 52    
Precipitation  
Precipitation 0.00 in - - ()
Sea Level Pressure  
Sea Level Pressure 30.05 in    
Wind  
Wind Speed 12 mph (WNW)    
Max Wind Speed 17 mph    
Max Gust Speed 24 mph    
Visibility 10 miles    
Events      
Averages and records for this station are not official NWS values.
T = Trace of Precipitation, MM = Missing Value Source: NWS Daily Summary

Daily Weather History Graph

Daily Weather History Graph

Search for Another Location

Airport or City:

Trip Planner

Search our weather history database for the weather conditions in past years. The results will help you decide how hot, cold, wet, or windy it might be!

Date:

Astronomy

Nov. 24, 2012 Rise Set
Actual Time 7:38 AM EST 5:06 PM EST
Civil Twilight 7:07 AM EST 5:37 PM EST
Nautical Twilight 6:33 AM EST 6:12 PM EST
Astronomical Twilight 5:59 AM EST 6:45 PM EST
Moon 2:53 PM EST (11/24) 3:51 AM EST (11/24)
Length of Visible Light 10h 29m
Length of Day
9h 27m
Waxing Gibbous, 87% of the Moon is Illuminated
Nov 24
Waxing Gibbous
Nov 28
Full
Dec 6
Last Quarter
Dec 13
New
Dec 20
First Quarter

Hourly Weather History & Observations

Time (EST) Temp. Windchill Dew Point Humidity Pressure Visibility Wind Dir Wind Speed Gust Speed Precip Events Conditions
12:14 AM 32.0 °F 21.2 °F 18.9 °F 58% 30.00 in 10.0 mi WNW 16.1 mph 21.9 mph N/A   Overcast
12:35 AM 32.0 °F 22.5 °F 18.9 °F 58% 30.00 in 10.0 mi WNW 12.7 mph 18.4 mph N/A   Overcast
1:14 AM 32.0 °F 22.1 °F 19.2 °F 59% 30.00 in 10.0 mi NW 13.8 mph 19.6 mph N/A   Overcast
1:35 AM 32.0 °F 23.6 °F 18.9 °F 58% 30.00 in 10.0 mi WNW 10.4 mph 20.7 mph N/A   Overcast
1:55 AM 32.0 °F 20.8 °F 19.0 °F 59% 30.00 in 10.0 mi WNW 17.3 mph 23.0 mph N/A   Overcast
2:14 AM 32.0 °F 24.2 °F 19.4 °F 60% 30.00 in 10.0 mi WNW 9.2 mph 16.1 mph N/A   Overcast
2:35 AM 31.8 °F 21.8 °F 19.0 °F 59% 30.01 in 10.0 mi WNW 13.8 mph 20.7 mph N/A   Overcast
2:54 AM 31.6 °F 21.2 °F 19.0 °F 60% 30.01 in 10.0 mi WNW 15.0 mph 20.7 mph N/A   Overcast
3:14 AM 31.6 °F 21.6 °F 18.5 °F 58% 30.02 in 10.0 mi WNW 13.8 mph 23.0 mph N/A   Overcast
3:35 AM 31.5 °F 20.9 °F 18.1 °F 58% 30.02 in 10.0 mi WNW 15.0 mph 18.4 mph N/A   Overcast
3:54 AM 31.5 °F 20.9 °F 18.1 °F 58% 30.02 in 10.0 mi WNW 15.0 mph 19.6 mph N/A   Overcast
4:14 AM 31.5 °F 21.4 °F 18.3 °F 58% 30.02 in 10.0 mi WNW 13.8 mph 21.9 mph N/A   Overcast
4:35 AM 31.3 °F 22.1 °F 18.5 °F 59% 30.02 in 10.0 mi WNW 11.5 mph 19.6 mph N/A   Overcast
4:54 AM 31.1 °F 21.9 °F 18.1 °F 59% 30.02 in 10.0 mi WNW 11.5 mph - N/A   Overcast
5:15 AM 31.1 °F 20.9 °F 17.4 °F 57% 30.03 in 10.0 mi WNW 13.8 mph 23.0 mph N/A   Overcast
5:35 AM 30.9 °F 20.7 °F 17.1 °F 57% 30.03 in 10.0 mi WNW 13.8 mph 18.4 mph N/A   Overcast
5:54 AM 30.9 °F 20.2 °F 17.4 °F 57% 30.04 in 10.0 mi WNW 15.0 mph 19.6 mph N/A   Overcast
6:15 AM 30.9 °F 19.8 °F 17.1 °F 57% 30.04 in 10.0 mi WNW 16.1 mph 19.6 mph N/A   Overcast
6:35 AM 30.9 °F 21.2 °F 17.2 °F 57% 30.05 in 10.0 mi WNW 12.7 mph 19.6 mph N/A   Overcast
6:54 AM 30.7 °F 21.4 °F 17.4 °F 58% 30.05 in 10.0 mi WNW 11.5 mph 18.4 mph N/A   Overcast
7:15 AM 30.7 °F 22.6 °F 16.9 °F 56% 30.05 in 10.0 mi WNW 9.2 mph 17.3 mph N/A   Overcast
7:35 AM 30.7 °F 20.0 °F 17.1 °F 57% 30.06 in 10.0 mi West 15.0 mph 20.7 mph N/A   Overcast
7:54 AM 30.6 °F 20.7 °F 17.2 °F 58% 30.06 in 10.0 mi WNW 12.7 mph - N/A   Overcast
8:15 AM 30.6 °F 21.2 °F 17.4 °F 58% 30.06 in 10.0 mi WNW 11.5 mph 16.1 mph N/A   Overcast
8:34 AM 30.7 °F 21.4 °F 17.4 °F 58% 30.07 in 10.0 mi WNW 11.5 mph - N/A   Overcast
8:54 AM 30.9 °F 20.2 °F 17.4 °F 57% 30.08 in 10.0 mi WNW 15.0 mph 18.4 mph N/A   Overcast
9:14 AM 31.1 °F 21.4 °F 18.0 °F 58% 30.08 in 10.0 mi WNW 12.7 mph 23.0 mph N/A   Overcast
9:34 AM 31.5 °F 20.1 °F 17.8 °F 57% 30.09 in 10.0 mi WNW 17.3 mph 24.2 mph N/A   Overcast
9:55 AM 31.1 °F 20.5 °F 17.4 °F 57% 30.09 in 10.0 mi NW 15.0 mph 19.6 mph N/A   Overcast
10:14 AM 31.1 °F 20.9 °F 17.4 °F 57% 30.09 in 10.0 mi WNW 13.8 mph 19.6 mph N/A   Overcast
10:34 AM 31.1 °F 20.9 °F 17.1 °F 56% 30.10 in 10.0 mi NW 13.8 mph 19.6 mph N/A   Overcast
10:55 AM 31.1 °F 20.9 °F 17.8 °F 58% 30.09 in 10.0 mi NW 13.8 mph 19.6 mph N/A   Overcast
11:14 AM 31.5 °F 20.9 °F 17.6 °F 57% 30.09 in 10.0 mi WNW 15.0 mph 19.6 mph N/A   Overcast
11:35 AM 32.0 °F 23.6 °F 16.7 °F 53% 30.09 in 10.0 mi NW 10.4 mph - N/A   Overcast
11:54 AM 32.0 °F 21.6 °F 16.5 °F 53% 30.08 in 10.0 mi WNW 15.0 mph 18.4 mph N/A   Overcast
12:14 PM 32.0 °F 23.6 °F 16.9 °F 54% 30.08 in 10.0 mi WNW 10.4 mph 18.4 mph N/A   Overcast
12:35 PM 32.0 °F 23.0 °F 16.5 °F 53% 30.07 in 10.0 mi WNW 11.5 mph - N/A   Overcast
12:54 PM 32.0 °F 22.5 °F 16.9 °F 54% 30.07 in 10.0 mi WNW 12.7 mph 19.6 mph N/A   Overcast
1:15 PM 32.0 °F 22.1 °F 16.9 °F 54% 30.07 in 10.0 mi NW 13.8 mph 19.6 mph N/A   Overcast
1:35 PM 32.0 °F 23.0 °F 16.7 °F 53% 30.07 in 10.0 mi WNW 11.5 mph 18.4 mph N/A   Overcast
1:54 PM 32.0 °F 23.0 °F 16.2 °F 52% 30.07 in 10.0 mi WNW 11.5 mph - N/A   Overcast
2:15 PM 32.0 °F 24.8 °F 16.9 °F 54% 30.07 in 10.0 mi WNW 8.1 mph - N/A   Overcast
2:35 PM 31.8 °F 22.3 °F 16.5 °F 53% 30.07 in 10.0 mi West 12.7 mph - N/A   Overcast
2:54 PM 31.6 °F 21.6 °F 15.8 °F 52% 30.07 in 10.0 mi West 13.8 mph 18.4 mph N/A   Overcast
3:15 PM 31.6 °F 22.6 °F 16.2 °F 53% 30.07 in 10.0 mi West 11.5 mph - N/A   Overcast
3:34 PM 31.6 °F 22.6 °F 15.8 °F 52% 30.07 in 10.0 mi WNW 11.5 mph 18.4 mph N/A   Overcast
3:55 PM 31.6 °F 23.1 °F 15.6 °F 52% 30.07 in 10.0 mi WNW 10.4 mph 17.3 mph N/A   Overcast
4:15 PM 31.6 °F 23.7 °F 16.3 °F 53% 30.07 in 10.0 mi WNW 9.2 mph - N/A   Overcast
4:34 PM 31.1 °F 21.9 °F 15.6 °F 53% 30.07 in 10.0 mi West 11.5 mph - N/A   Overcast
4:55 PM 31.1 °F 21.9 °F 16.3 °F 54% 30.07 in 10.0 mi West 11.5 mph - N/A   Overcast
5:14 PM 30.9 °F 21.7 °F 15.4 °F 53% 30.07 in 10.0 mi West 11.5 mph 17.3 mph N/A   Overcast
5:34 PM 30.9 °F 22.8 °F 15.6 °F 53% 30.07 in 10.0 mi WNW 9.2 mph - N/A   Overcast
5:55 PM 30.7 °F 22.0 °F 15.3 °F 53% 30.07 in 10.0 mi WNW 10.4 mph - N/A   Overcast
6:14 PM 30.6 °F 24.7 °F 15.8 °F 54% 30.07 in 10.0 mi WNW 5.8 mph - N/A   Overcast
6:34 PM 30.4 °F 21.0 °F 14.9 °F 53% 30.07 in 10.0 mi WNW 11.5 mph - N/A   Overcast
6:54 PM 30.2 °F 22.6 °F 15.1 °F 53% 30.06 in 10.0 mi NW 8.1 mph - N/A   Overcast
7:14 PM 30.2 °F 24.3 °F 15.4 °F 54% 30.07 in 10.0 mi West 5.8 mph - N/A   Overcast
7:35 PM 30.2 °F 24.3 °F 15.6 °F 55% 30.06 in 10.0 mi West 5.8 mph - N/A   Overcast
7:54 PM 30.2 °F 26.7 °F 16.2 °F 56% 30.06 in 10.0 mi West 3.5 mph - N/A   Overcast
8:15 PM 30.2 °F 24.3 °F 16.7 °F 57% 30.05 in 10.0 mi West 5.8 mph - N/A   Overcast
8:35 PM 30.0 °F 21.1 °F 16.5 °F 57% 30.05 in 10.0 mi West 10.4 mph - N/A   Overcast
8:54 PM 30.0 °F 25.2 °F 16.3 °F 57% 30.04 in 10.0 mi West 4.6 mph - N/A   Overcast
9:15 PM 29.8 °F 23.0 °F 16.7 °F 58% 30.04 in 10.0 mi West 6.9 mph - N/A   Overcast
9:35 PM 30.0 °F 24.1 °F 16.7 °F 58% 30.03 in 10.0 mi West 5.8 mph - N/A   Overcast
9:54 PM 29.8 °F 26.3 °F 17.2 °F 59% 30.02 in 10.0 mi WSW 3.5 mph - N/A   Overcast
10:15 PM 29.8 °F - 17.8 °F 61% 30.01 in 10.0 mi Calm Calm - N/A   Overcast
10:35 PM 29.8 °F 24.9 °F 18.3 °F 62% 30.01 in 10.0 mi SW 4.6 mph - N/A   Overcast
10:54 PM 30.0 °F 23.2 °F 18.7 °F 63% 30.01 in 10.0 mi WSW 6.9 mph - N/A   Overcast
11:15 PM 29.8 °F 23.9 °F 18.5 °F 63% 30.01 in 10.0 mi WSW 5.8 mph - N/A   Overcast
11:35 PM 29.8 °F 24.9 °F 18.5 °F 63% 30.01 in 10.0 mi WSW 4.6 mph - N/A   Overcast
11:54 PM 29.8 °F 23.9 °F 19.0 °F 64% 30.01 in 10.0 mi WSW 5.8 mph - N/A   Overcast